Time;durP1;ratioP1;P1;durP2;ratioP2;P2;SDS_P1;SDS_P2;PMS_P1;PMS_P2;Temp;Humidity;BMP_temperature;BMP_pressure;BME280_temperature;BME280_humidity;BME280_pressure;Samples;Min_cycle;Max_cycle;Signal;HPM_P1;HPM_P2
2022/08/29 00:02:19;;;;;;;10.85;5.70;;;;;;;19.00;78.08;97793.16;1720578;83;20920;-60
2022/08/29 00:04:45;;;;;;;11.38;6.08;;;;;;;18.98;78.02;97795.41;1719705;83;20861;-60
2022/08/29 00:07:12;;;;;;;11.68;5.37;;;;;;;18.95;78.13;97794.77;1722416;83;20951;-61
2022/08/29 00:09:38;;;;;;;12.28;5.17;;;;;;;18.95;78.21;97798.84;1718952;81;21084;-60
2022/08/29 00:12:05;;;;;;;12.63;5.53;;;;;;;18.97;78.31;97799.84;1718546;83;21235;-60
2022/08/29 00:14:32;;;;;;;12.78;5.95;;;;;;;19.00;78.37;97795.08;1721921;83;20892;-60
2022/08/29 00:16:59;;;;;;;10.68;5.62;;;;;;;19.00;78.50;97792.37;1721592;83;20975;-59
2022/08/29 00:19:27;;;;;;;13.75;5.40;;;;;;;19.00;78.55;97795.88;1720769;83;21006;-59
2022/08/29 00:21:53;;;;;;;12.60;5.28;;;;;;;19.03;78.54;97797.87;1721124;83;21003;-60
2022/08/29 00:24:20;;;;;;;13.55;5.20;;;;;;;19.06;78.50;97793.67;1714018;83;21121;-60
2022/08/29 00:26:47;;;;;;;12.58;5.50;;;;;;;19.03;78.64;97796.52;1721428;83;21035;-61
2022/08/29 00:29:13;;;;;;;11.93;5.12;;;;;;;19.04;78.67;97791.31;1721736;81;20907;-60
2022/08/29 00:31:40;;;;;;;13.88;5.85;;;;;;;19.07;78.61;97789.27;1720952;83;20935;-60
2022/08/29 00:34:07;;;;;;;11.00;5.53;;;;;;;19.08;78.53;97790.83;1722438;83;20955;-60
2022/08/29 00:36:34;;;;;;;12.35;5.42;;;;;;;19.09;78.38;97791.06;1723775;83;21240;-60
2022/08/29 00:39:02;;;;;;;10.85;5.97;;;;;;;19.06;78.38;97797.74;1718715;83;20900;-59
2022/08/29 00:41:29;;;;;;;11.05;5.60;;;;;;;19.03;78.36;97795.16;1719354;83;20991;-60
2022/08/29 00:43:56;;;;;;;13.62;5.60;;;;;;;19.00;78.50;97795.88;1720226;83;38609;-61
2022/08/29 00:46:45;;;;;;;9.68;5.62;;;;;;;19.01;78.51;97790.66;1723720;83;20895;-61
2022/08/29 00:49:36;;;;;;;14.70;5.75;;;;;;;18.99;78.54;97780.72;1720492;83;21227;-61
2022/08/29 00:52:14;;;;;;;12.55;6.20;;;;;;;19.00;78.52;97783.66;1722627;83;21007;-61
2022/08/29 00:54:44;;;;;;;17.75;5.70;;;;;;;19.00;78.38;97780.16;1708965;83;20915;-61
2022/08/29 00:57:11;;;;;;;13.20;5.87;;;;;;;19.00;78.30;97782.87;1717550;83;21482;-61
2022/08/29 00:59:39;;;;;;;10.72;5.30;;;;;;;18.98;78.41;97785.15;1715900;83;21379;-61
2022/08/29 01:02:06;;;;;;;12.85;5.62;;;;;;;18.99;78.48;97782.64;1719735;83;21243;-62
2022/08/29 01:04:32;;;;;;;13.22;5.50;;;;;;;19.00;78.41;97787.73;1721919;81;20969;-61
2022/08/29 01:06:59;;;;;;;8.68;5.33;;;;;;;18.99;78.48;97785.35;1722444;81;21058;-60
2022/08/29 01:09:25;;;;;;;10.48;5.50;;;;;;;18.99;78.53;97788.06;1722422;83;21562;-61
2022/08/29 01:14:39;;;;;;;12.90;5.42;;;;;;;18.95;78.43;97787.99;1718284;83;21262;-61
2022/08/29 01:17:06;;;;;;;8.33;5.15;;;;;;;18.93;78.39;97790.27;1719392;83;21058;-61
2022/08/29 01:19:47;;;;;;;12.20;6.22;;;;;;;18.92;78.39;97790.59;1719148;83;20931;-62
2022/08/29 01:22:28;;;;;;;11.83;5.72;;;;;;;18.90;78.32;97790.95;1709786;83;20996;-61
2022/08/29 01:24:54;;;;;;;8.98;5.37;;;;;;;18.88;78.45;97787.02;1716907;83;21086;-61
2022/08/29 01:27:24;;;;;;;11.00;5.47;;;;;;;18.85;78.50;97799.34;1720552;83;21290;-60
2022/08/29 01:29:51;;;;;;;10.82;5.28;;;;;;;18.82;78.66;97793.25;1717980;83;21093;-62
2022/08/29 01:32:17;;;;;;;10.53;5.50;;;;;;;18.79;78.67;97787.19;1721980;81;21039;-61
2022/08/29 01:34:44;;;;;;;8.60;4.65;;;;;;;18.77;78.83;97784.01;1717087;83;20979;-60
2022/08/29 01:37:13;;;;;;;12.33;5.60;;;;;;;18.75;78.94;97783.58;1718387;83;21049;-61
2022/08/29 01:39:41;;;;;;;12.33;5.72;;;;;;;18.71;79.10;97781.34;1720716;83;21517;-61
2022/08/29 01:42:18;;;;;;;10.93;5.22;;;;;;;18.68;78.89;97782.03;1722144;83;20923;-61
2022/08/29 01:44:55;;;;;;;9.30;5.28;;;;;;;18.68;79.16;97779.88;1718654;83;21028;-61
2022/08/29 01:47:23;;;;;;;12.13;5.35;;;;;;;18.66;79.21;97779.44;1721859;83;21436;-60
2022/08/29 01:49:50;;;;;;;9.33;4.85;;;;;;;18.68;78.15;97781.23;1720311;83;20979;-60
2022/08/29 01:52:16;;;;;;;9.93;4.65;;;;;;;18.77;78.14;97777.82;1720977;83;21078;-61
2022/08/29 01:54:43;;;;;;;9.65;5.00;;;;;;;18.82;77.83;97778.33;1723356;83;20896;-62
2022/08/29 01:57:11;;;;;;;8.78;4.33;;;;;;;18.87;77.21;97771.30;1719948;83;20904;-62
2022/08/29 01:59:38;;;;;;;8.83;5.05;;;;;;;18.96;76.65;97771.91;1719918;83;21485;-61
2022/08/29 02:02:15;;;;;;;8.83;4.28;;;;;;;19.05;76.46;97768.45;1717209;83;20972;-61
2022/08/29 02:04:42;;;;;;;9.95;4.60;;;;;;;19.06;76.04;97774.67;1717621;83;21133;-62
2022/08/29 02:07:08;;;;;;;9.08;4.25;;;;;;;19.08;75.40;97771.03;1721571;83;21030;-61
2022/08/29 02:09:36;;;;;;;7.17;4.22;;;;;;;19.22;74.39;97782.83;1718839;83;21074;-61
2022/08/29 02:12:05;;;;;;;7.17;3.67;;;;;;;19.41;73.59;97784.27;1718395;83;21118;-61
2022/08/29 02:14:31;;;;;;;6.08;3.70;;;;;;;19.53;72.66;97780.09;1719239;83;21440;-61
2022/08/29 02:16:58;;;;;;;5.65;3.30;;;;;;;19.72;71.79;97783.66;1719824;83;22033;-60
2022/08/29 02:19:25;;;;;;;7.55;3.72;;;;;;;19.93;70.87;97793.41;1720416;83;21108;-61
2022/08/29 02:21:51;;;;;;;5.45;3.17;;;;;;;20.12;69.87;97796.95;1717205;83;20975;-62
2022/08/29 02:24:18;;;;;;;8.60;3.72;;;;;;;20.33;68.82;97795.27;1719126;83;21026;-61
2022/08/29 02:26:44;;;;;;;5.08;3.22;;;;;;;20.52;67.87;97791.74;1718186;83;21164;-61
2022/08/29 02:29:11;;;;;;;4.45;3.30;;;;;;;20.66;67.26;97792.02;1716001;83;21311;-61
2022/08/29 02:31:40;;;;;;;6.53;3.50;;;;;;;20.76;66.91;97792.80;1721757;83;22999;-60
2022/08/29 02:34:07;;;;;;;6.70;3.40;;;;;;;20.84;66.55;97786.34;1722032;83;20984;-61
2022/08/29 02:36:35;;;;;;;4.03;3.30;;;;;;;20.90;66.36;97802.58;1721403;83;20991;-60
2022/08/29 02:39:01;;;;;;;5.95;3.52;;;;;;;20.92;66.29;97799.70;1719651;83;20956;-61
2022/08/29 02:41:28;;;;;;;7.90;3.50;;;;;;;20.94;66.08;97802.06;1721521;83;21237;-61
2022/08/29 02:43:55;;;;;;;7.90;3.50;;;;;;;20.97;65.87;97801.34;1719203;83;20923;-62
2022/08/29 02:46:21;;;;;;;7.20;3.42;;;;;;;20.99;65.76;97802.56;1715894;83;20873;-61
2022/08/29 02:48:48;;;;;;;9.73;3.42;;;;;;;20.98;65.97;97797.48;1721095;83;20947;-61
2022/08/29 02:51:24;;;;;;;6.80;4.12;;;;;;;20.95;66.13;97813.17;1721072;83;20984;-61
2022/08/29 02:53:51;;;;;;;7.47;4.20;;;;;;;20.92;66.35;97811.96;1719967;83;21522;-61
2022/08/29 02:56:18;;;;;;;9.65;3.72;;;;;;;20.90;66.61;97810.75;1708881;83;21183;-62
2022/08/29 02:58:46;;;;;;;7.20;3.27;;;;;;;20.89;66.85;97809.19;1718538;83;20963;-62
2022/08/29 03:01:13;;;;;;;5.90;3.65;;;;;;;20.89;67.07;97809.19;1720162;83;20900;-62
2022/08/29 03:03:39;;;;;;;6.03;4.00;;;;;;;20.88;67.19;97806.23;1722564;83;21045;-61
2022/08/29 03:06:07;;;;;;;6.60;3.70;;;;;;;20.88;67.35;97808.97;1718449;81;21122;-62
2022/08/29 03:08:34;;;;;;;8.20;4.25;;;;;;;20.89;67.57;97810.55;1718722;83;21484;-61
2022/08/29 03:11:01;;;;;;;6.10;3.92;;;;;;;20.90;67.71;97809.38;1721375;83;21399;-61
2022/08/29 03:13:28;;;;;;;7.60;4.08;;;;;;;20.89;68.09;97817.36;1718528;83;20932;-62
2022/08/29 03:15:54;;;;;;;6.28;4.45;;;;;;;20.88;68.27;97817.92;1717111;83;20932;-62
2022/08/29 03:18:22;;;;;;;7.22;4.40;;;;;;;20.87;68.52;97816.33;1719658;83;21239;-62
2022/08/29 03:20:48;;;;;;;6.92;4.00;;;;;;;20.85;68.75;97824.65;1721223;83;21594;-62
2022/08/29 03:23:15;;;;;;;5.72;3.80;;;;;;;20.82;69.02;97821.31;1718398;83;20977;-62
2022/08/29 03:25:42;;;;;;;7.15;3.95;;;;;;;20.78;69.37;97823.16;1718949;81;20943;-61
2022/08/29 03:28:09;;;;;;;9.50;4.67;;;;;;;20.75;69.67;97831.47;1723132;83;20975;-62
2022/08/29 03:30:35;;;;;;;5.55;3.90;;;;;;;20.73;70.20;97832.97;1722725;83;21241;-62
2022/08/29 03:33:04;;;;;;;13.13;4.45;;;;;;;20.69;70.50;97836.20;1720540;83;21454;-62
2022/08/29 03:35:31;;;;;;;8.73;4.30;;;;;;;20.66;70.71;97835.55;1720589;83;20912;-61
2022/08/29 03:37:58;;;;;;;10.20;4.80;;;;;;;20.62;71.04;97836.06;1718194;83;20916;-62
2022/08/29 03:40:31;;;;;;;8.88;4.62;;;;;;;20.57;71.69;97839.06;1719955;83;21038;-61
2022/08/29 03:42:58;;;;;;;10.58;4.30;;;;;;;20.50;72.05;97838.92;1720889;83;21254;-61
2022/08/29 03:45:25;;;;;;;6.03;4.60;;;;;;;20.42;72.39;97834.70;1720920;83;20912;-61
2022/08/29 03:47:52;;;;;;;8.50;4.33;;;;;;;20.36;72.99;97842.95;1716162;83;21003;-61
2022/08/29 03:50:19;;;;;;;6.55;4.28;;;;;;;20.29;73.23;97834.64;1719653;83;21501;-62
2022/08/29 03:52:47;;;;;;;7.33;4.87;;;;;;;20.21;73.83;97840.23;1718052;83;20990;-61
2022/08/29 03:55:14;;;;;;;8.18;5.15;;;;;;;20.12;74.13;97832.30;1718776;83;21058;-60
2022/08/29 03:57:41;;;;;;;13.98;5.55;;;;;;;20.06;75.08;97836.45;1717780;83;21439;-61
2022/08/29 04:00:12;;;;;;;9.23;5.10;;;;;;;19.99;75.49;97830.86;1722185;83;20955;-62
2022/08/29 04:02:39;;;;;;;6.67;4.72;;;;;;;19.92;75.99;97824.47;1719316;83;20924;-62
2022/08/29 04:05:08;;;;;;;9.88;4.87;;;;;;;19.86;76.28;97819.87;1720892;83;20907;-62
2022/08/29 04:07:48;;;;;;;9.58;5.80;;;;;;;19.82;76.62;97821.72;1718756;83;21844;-62
2022/08/29 04:10:20;;;;;;;7.50;5.50;;;;;;;19.78;77.14;97820.87;1721425;83;20979;-61
2022/08/29 04:12:46;;;;;;;7.08;5.00;;;;;;;19.74;77.48;97818.62;1714492;83;20994;-61
2022/08/29 04:15:13;;;;;;;7.78;4.70;;;;;;;19.72;77.69;97813.55;1718243;81;21011;-61
2022/08/29 04:17:39;;;;;;;8.35;5.15;;;;;;;19.70;78.02;97819.12;1721026;81;20911;-61
2022/08/29 04:20:09;;;;;;;10.20;5.33;;;;;;;19.69;78.14;97818.89;1719474;83;21136;-62
2022/08/29 04:22:37;;;;;;;9.53;5.70;;;;;;;19.72;78.12;97818.19;1718255;83;21435;-60
2022/08/29 04:25:06;;;;;;;13.05;5.80;;;;;;;19.75;78.29;97821.56;1721839;83;20900;-61
2022/08/29 04:27:33;;;;;;;7.67;4.83;;;;;;;19.79;78.19;97811.55;1718543;83;20947;-60
2022/08/29 04:29:59;;;;;;;8.10;5.67;;;;;;;19.89;78.15;97822.45;1718392;83;21339;-60
2022/08/29 04:32:26;;;;;;;9.63;5.50;;;;;;;19.95;77.96;97816.38;1717228;83;21130;-61
2022/08/29 04:34:56;;;;;;;12.30;5.70;;;;;;;20.04;77.76;97816.98;1721672;83;20995;-61
2022/08/29 04:37:23;;;;;;;9.43;5.70;;;;;;;20.14;77.35;97826.48;1715693;83;20975;-62
2022/08/29 04:39:50;;;;;;;10.78;5.83;;;;;;;20.21;77.02;97827.44;1721037;83;21034;-61
2022/08/29 04:42:18;;;;;;;10.40;5.55;;;;;;;20.26;76.93;97829.91;1718373;83;20999;-61
2022/08/29 04:44:46;;;;;;;8.00;5.22;;;;;;;20.31;76.77;97826.91;1722570;83;21306;-61
2022/08/29 04:47:13;;;;;;;9.83;5.50;;;;;;;20.36;76.56;97826.63;1717602;83;20899;-62
2022/08/29 04:49:41;;;;;;;11.95;6.00;;;;;;;20.39;76.53;97836.80;1718083;83;20944;-61
2022/08/29 04:52:09;;;;;;;10.10;5.50;;;;;;;20.43;76.42;97834.94;1717348;83;21419;-62
2022/08/29 04:54:35;;;;;;;8.28;5.62;;;;;;;20.45;76.42;97828.56;1720456;83;20939;-62
2022/08/29 04:57:02;;;;;;;8.38;5.35;;;;;;;20.45;76.34;97827.20;1721922;83;21236;-62
2022/08/29 04:59:29;;;;;;;9.98;5.58;;;;;;;20.47;76.28;97835.59;1719426;83;21003;-61
2022/08/29 05:01:56;;;;;;;14.75;6.03;;;;;;;20.46;76.41;97827.98;1718890;83;20988;-62
2022/08/29 05:04:22;;;;;;;8.90;5.90;;;;;;;20.50;76.47;97825.33;1720073;83;21641;-61
2022/08/29 05:06:49;;;;;;;10.75;6.15;;;;;;;20.47;76.35;97824.70;1717103;83;21127;-62
2022/08/29 05:09:16;;;;;;;10.08;5.67;;;;;;;20.41;76.59;97827.70;1720482;83;21256;-62
2022/08/29 05:11:43;;;;;;;11.15;5.50;;;;;;;20.38;76.79;97833.85;1723523;83;20896;-63
2022/08/29 05:14:09;;;;;;;13.68;5.62;;;;;;;20.37;76.85;97830.14;1719938;82;21577;-61
2022/08/29 05:16:36;;;;;;;10.28;5.60;;;;;;;20.34;76.97;97833.00;1721271;82;20978;-61
2022/08/29 05:19:05;;;;;;;9.93;5.55;;;;;;;20.31;77.21;97836.42;1718307;83;20943;-62
2022/08/29 05:21:34;;;;;;;8.85;5.75;;;;;;;20.29;77.31;97837.36;1721282;83;21082;-61
2022/08/29 05:24:04;;;;;;;12.55;6.00;;;;;;;20.27;77.61;97833.42;1717521;83;20899;-61
2022/08/29 05:26:34;;;;;;;8.43;6.17;;;;;;;20.25;77.64;97841.15;1719989;83;20996;-62
2022/08/29 05:29:02;;;;;;;8.73;5.95;;;;;;;20.24;77.67;97836.28;1718395;83;20954;-60
2022/08/29 05:31:28;;;;;;;15.40;6.83;;;;;;;20.19;77.88;97841.96;1719331;83;20963;-62
2022/08/29 05:33:55;;;;;;;12.47;7.37;;;;;;;20.16;78.04;97842.66;1720674;83;21239;-61
2022/08/29 05:36:21;;;;;;;12.93;8.28;;;;;;;20.17;78.23;97850.26;1720503;83;21481;-60
2022/08/29 05:38:48;;;;;;;11.38;8.25;;;;;;;20.15;78.37;97837.03;1721680;83;21458;-61
2022/08/29 05:41:15;;;;;;;14.00;8.05;;;;;;;20.14;78.30;97837.36;1719066;83;20928;-61
2022/08/29 05:43:42;;;;;;;15.53;7.47;;;;;;;20.12;78.52;97840.45;1721240;83;20999;-61
2022/08/29 05:46:10;;;;;;;10.90;7.15;;;;;;;20.13;78.62;97837.96;1719779;83;21253;-60
2022/08/29 05:48:40;;;;;;;14.70;7.30;;;;;;;20.14;78.49;97840.09;1720532;83;20923;-61
2022/08/29 05:51:16;;;;;;;12.58;7.37;;;;;;;20.13;78.40;97850.20;1717534;83;20971;-61
2022/08/29 05:53:42;;;;;;;12.70;7.30;;;;;;;20.10;78.37;97850.90;1746805;81;21437;-61
2022/08/29 05:56:09;;;;;;;12.10;7.35;;;;;;;20.08;78.52;97857.27;1750400;80;21078;-61
2022/08/29 05:58:35;;;;;;;10.85;7.42;;;;;;;20.11;78.56;97871.52;1744155;80;21243;-61
2022/08/29 06:01:02;;;;;;;15.80;8.28;;;;;;;20.13;78.54;97871.95;1726237;80;21087;-62
2022/08/29 06:03:29;;;;;;;14.98;9.40;;;;;;;20.16;78.42;97882.09;1744808;80;20939;-63
2022/08/29 06:05:56;;;;;;;13.65;8.73;;;;;;;20.17;78.51;97880.96;1756118;80;22153;-60
2022/08/29 06:08:23;;;;;;;11.88;7.58;;;;;;;20.22;78.67;97886.16;1740842;80;21719;-62
2022/08/29 06:10:49;;;;;;;12.55;7.10;;;;;;;20.25;78.33;97886.02;1743195;81;21249;-62
2022/08/29 06:13:16;;;;;;;12.13;7.97;;;;;;;20.22;78.37;97883.44;1722966;80;21507;-60
2022/08/29 06:15:44;;;;;;;12.58;7.65;;;;;;;20.20;78.41;97891.14;1738598;80;20958;-63
2022/08/29 06:18:11;;;;;;;8.38;6.55;;;;;;;20.19;78.45;97882.75;1728005;80;21021;-62
2022/08/29 06:20:38;;;;;;;15.98;7.08;;;;;;;20.20;78.51;97891.14;1748230;80;22868;-63
2022/08/29 06:23:05;;;;;;;10.30;7.08;;;;;;;20.20;78.54;97892.50;1742926;80;22008;-60
2022/08/29 06:25:31;;;;;;;13.22;7.72;;;;;;;20.21;78.56;97897.34;1730578;80;21171;-61
2022/08/29 06:27:58;;;;;;;13.78;8.28;;;;;;;20.21;78.65;97900.85;1738585;81;21086;-62
2022/08/29 06:30:25;;;;;;;13.22;8.30;;;;;;;20.23;78.71;97906.75;1723950;81;21051;-61
2022/08/29 06:32:52;;;;;;;11.03;7.30;;;;;;;20.24;78.78;97902.91;1741638;80;20992;-62
2022/08/29 06:35:19;;;;;;;13.13;7.17;;;;;;;20.25;78.87;97903.70;1716225;81;21232;-62
2022/08/29 06:37:46;;;;;;;10.75;6.67;;;;;;;20.24;78.74;97902.91;1735780;80;21034;-61
2022/08/29 06:40:12;;;;;;;9.08;6.47;;;;;;;20.23;78.97;97912.19;1709766;82;21027;-62
2022/08/29 06:42:39;;;;;;;11.08;6.60;;;;;;;20.23;79.02;97915.51;1717900;82;21097;-62
2022/08/29 06:45:07;;;;;;;10.88;7.10;;;;;;;20.22;79.16;97918.79;1705570;81;21035;-60
2022/08/29 06:47:34;;;;;;;8.38;6.55;;;;;;;20.21;79.38;97930.77;1704642;81;21257;-60
2022/08/29 06:50:01;;;;;;;9.33;6.53;;;;;;;20.22;79.48;97937.83;1680002;83;21496;-63
2022/08/29 06:52:27;;;;;;;9.93;7.03;;;;;;;20.22;79.60;97935.11;1690323;83;21100;-61
2022/08/29 06:54:54;;;;;;;9.60;6.45;;;;;;;20.18;80.02;97936.94;1685109;83;21082;-62
2022/08/29 06:57:21;;;;;;;10.63;6.80;;;;;;;20.19;80.30;97939.86;1683136;82;21059;-61
2022/08/29 06:59:48;;;;;;;8.48;7.28;;;;;;;20.18;80.47;97936.14;1688200;82;21139;-61
2022/08/29 07:02:21;;;;;;;8.43;6.62;;;;;;;20.16;80.73;97939.20;1679634;83;21257;-61
2022/08/29 07:04:49;;;;;;;7.67;5.95;;;;;;;20.19;80.85;97943.14;1695547;82;21046;-61
2022/08/29 07:07:16;;;;;;;9.95;6.42;;;;;;;20.25;80.93;97945.85;1704555;81;21011;-61
2022/08/29 07:09:43;;;;;;;9.68;6.47;;;;;;;20.26;80.83;97947.41;1706954;82;21078;-61
2022/08/29 07:12:10;;;;;;;11.95;6.55;;;;;;;20.21;80.94;97946.29;1710182;82;22380;-59
2022/08/29 07:14:37;;;;;;;10.38;6.55;;;;;;;20.17;80.99;97948.94;1679194;83;21146;-60
2022/08/29 07:17:10;;;;;;;9.95;6.55;;;;;;;20.17;81.09;97954.38;1671090;83;21492;-61
2022/08/29 07:19:37;;;;;;;10.20;5.78;;;;;;;20.17;81.10;97959.81;1675784;82;21889;-62
2022/08/29 07:22:04;;;;;;;8.30;6.12;;;;;;;20.14;81.34;97956.44;1676227;83;21608;-60
2022/08/29 07:24:30;;;;;;;9.25;6.37;;;;;;;20.14;81.51;97959.16;1671545;83;22094;-62
2022/08/29 07:26:57;;;;;;;8.63;6.87;;;;;;;20.16;81.59;97956.10;1676041;83;21190;-63
2022/08/29 07:29:24;;;;;;;13.48;7.53;;;;;;;20.18;81.51;97957.33;1674394;83;21035;-63
2022/08/29 07:31:50;;;;;;;10.23;6.92;;;;;;;20.18;81.52;97960.05;1672216;83;21142;-65
2022/08/29 07:34:18;;;;;;;10.20;6.97;;;;;;;20.18;81.68;97962.77;1674277;83;21201;-62
2022/08/29 07:36:45;;;;;;;9.43;7.60;;;;;;;20.19;81.70;97959.45;1670851;83;21248;-65
2022/08/29 07:39:15;;;;;;;13.05;7.92;;;;;;;20.21;81.79;97971.55;1669133;84;21055;-65
2022/08/29 07:41:43;;;;;;;10.40;7.83;;;;;;;20.24;81.87;97966.81;1657131;84;20960;-62
2022/08/29 07:44:10;;;;;;;9.88;7.30;;;;;;;20.28;81.90;97965.52;1685261;82;21160;-64
2022/08/29 07:46:39;;;;;;;11.05;8.43;;;;;;;20.30;81.78;97965.38;1663235;84;21142;-65
2022/08/29 07:49:06;;;;;;;8.18;7.12;;;;;;;20.34;81.71;97966.84;1672924;84;21104;-62
2022/08/29 07:51:33;;;;;;;11.75;7.50;;;;;;;20.37;81.76;97968.27;1677186;83;21071;-64
2022/08/29 07:54:00;;;;;;;10.58;7.78;;;;;;;20.41;81.77;97975.95;1684441;83;21088;-62
2022/08/29 07:56:30;;;;;;;9.15;7.40;;;;;;;20.43;81.72;97968.79;1674498;84;21000;-62
2022/08/29 07:58:57;;;;;;;11.33;7.53;;;;;;;20.44;81.76;97975.82;1675042;82;21066;-61
2022/08/29 08:01:24;;;;;;;11.33;7.80;;;;;;;20.48;81.71;97982.13;1709482;82;21239;-62
2022/08/29 08:03:52;;;;;;;9.35;7.05;;;;;;;20.52;81.68;97983.55;1674429;83;21465;-63
2022/08/29 08:06:27;;;;;;;9.75;7.15;;;;;;;20.57;81.71;97986.00;1675223;83;21370;-61
2022/08/29 08:09:12;;;;;;;9.10;7.30;;;;;;;20.64;81.69;97982.07;1692890;83;21201;-65
2022/08/29 08:12:08;;;;;;;13.83;7.95;;;;;;;20.69;81.51;97981.23;1687981;81;21099;-65
2022/08/29 08:15:04;;;;;;;13.25;7.78;;;;;;;20.75;81.54;97988.55;1693871;82;21026;-62
2022/08/29 08:17:53;;;;;;;10.03;7.03;;;;;;;20.83;81.45;97984.82;1696993;81;21578;-62
2022/08/29 08:20:47;;;;;;;10.00;6.97;;;;;;;20.90;81.24;97987.69;1727752;80;21016;-64
2022/08/29 08:23:36;;;;;;;8.80;7.30;;;;;;;20.96;81.21;97980.83;1745076;79;21092;-64
2022/08/29 08:26:13;;;;;;;8.80;7.30;;;;;;;20.99;81.04;97980.09;1739611;80;21108;-62
2022/08/29 08:28:40;;;;;;;10.13;7.95;;;;;;;21.05;81.11;97984.16;1700760;83;21248;-64
2022/08/29 08:31:08;;;;;;;12.15;7.95;;;;;;;21.15;80.80;97982.20;1691426;83;21003;-64
2022/08/29 08:33:37;;;;;;;9.20;7.05;;;;;;;21.16;80.44;97985.15;1690979;83;21109;-64
2022/08/29 08:36:20;;;;;;;8.38;6.78;;;;;;;21.18;80.34;97984.78;1729003;79;21110;-63
2022/08/29 08:38:47;;;;;;;11.57;7.58;;;;;;;21.19;80.17;97978.99;1727892;81;21126;-61
2022/08/29 08:41:35;;;;;;;9.53;7.47;;;;;;;21.28;80.13;97980.92;1738548;81;21254;-63
2022/08/29 08:44:11;;;;;;;8.98;7.70;;;;;;;21.40;80.27;97972.59;1733323;81;21114;-62
2022/08/29 08:49:27;;;;;;;12.40;7.90;;;;;;;21.66;79.06;97978.14;1721350;80;21004;-60
2022/08/29 08:52:03;;;;;;;10.05;8.10;;;;;;;21.69;78.31;97976.02;1742688;80;21300;-61
2022/08/29 08:54:38;;;;;;;11.20;8.33;;;;;;;21.72;78.28;97984.05;1734571;80;20900;-63
2022/08/29 08:57:09;;;;;;;15.35;8.98;;;;;;;21.74;78.08;97977.09;1739769;80;21028;-65
2022/08/29 08:59:42;;;;;;;10.90;8.20;;;;;;;21.73;78.10;97976.89;1711688;80;21023;-67
2022/08/29 09:02:35;;;;;;;16.85;8.48;;;;;;;21.79;78.44;97984.97;1722330;81;21049;-64
2022/08/29 09:05:46;;;;;;;16.90;8.98;;;;;;;21.95;78.04;97982.73;1732742;80;21198;-60
2022/08/29 09:08:46;;;;;;;11.75;7.95;;;;;;;22.03;77.80;97987.94;1739259;80;21297;-58
2022/08/29 09:11:35;;;;;;;12.20;8.10;;;;;;;22.16;77.63;97987.94;1726043;82;21037;-66
2022/08/29 09:14:38;;;;;;;11.35;7.78;;;;;;;22.38;77.16;97986.34;1741591;81;21510;-63
2022/08/29 09:17:16;;;;;;;11.08;7.92;;;;;;;22.53;76.38;97987.34;1738399;80;20999;-66
2022/08/29 09:19:43;;;;;;;11.38;8.00;;;;;;;22.72;75.46;97989.41;1734145;80;21029;-61
2022/08/29 09:22:18;;;;;;;9.18;7.33;;;;;;;22.84;73.84;97990.55;1712603;80;21180;-60
2022/08/29 09:25:00;;;;;;;14.58;7.50;;;;;;;22.85;73.49;97986.64;1720402;80;20979;-61
2022/08/29 09:27:29;;;;;;;8.80;6.67;;;;;;;22.87;73.40;97990.39;1716818;81;21049;-59
2022/08/29 09:30:13;;;;;;;10.18;7.70;;;;;;;22.94;72.78;97985.78;1698546;81;21071;-59
2022/08/29 09:33:07;;;;;;;12.98;6.97;;;;;;;22.97;73.21;97995.98;1734875;79;21123;-62
2022/08/29 09:35:50;;;;;;;8.25;6.67;;;;;;;23.01;73.12;97994.67;1729089;81;21129;-61
2022/08/29 09:38:22;;;;;;;7.85;6.22;;;;;;;23.08;71.17;97992.79;1719191;80;21038;-62
2022/08/29 09:40:58;;;;;;;7.65;5.85;;;;;;;23.15;71.66;97987.41;1734652;80;21027;-61
2022/08/29 09:43:39;;;;;;;7.28;5.62;;;;;;;23.66;70.25;97984.10;1729225;80;21072;-64
2022/08/29 09:46:24;;;;;;;9.63;6.10;;;;;;;23.66;70.25;97984.10;1733271;80;21516;-62
2022/08/29 09:49:11;;;;;;;;;;;;;;;23.93;69.20;97984.75;1717128;80;21101;-61
2022/08/29 09:51:40;;;;;;;11.00;7.10;;;;;;;24.09;68.80;97991.58;1738785;80;20141;-62
2022/08/29 09:54:24;;;;;;;7.12;6.42;;;;;;;24.13;68.41;97992.38;1737335;79;21042;-63
2022/08/29 09:57:02;;;;;;;13.20;7.08;;;;;;;24.11;68.97;97982.40;1740677;79;21663;-62
2022/08/29 09:59:34;;;;;;;10.50;6.80;;;;;;;24.22;69.33;97985.20;1732426;80;21198;-61
2022/08/29 10:02:35;;;;;;;9.75;6.37;;;;;;;24.30;68.60;97985.47;1734411;81;22167;-62
2022/08/29 10:05:06;;;;;;;9.75;6.28;;;;;;;24.42;68.62;97988.67;1725640;80;21070;-61
2022/08/29 10:07:47;;;;;;;7.83;5.75;;;;;;;24.60;67.78;97982.53;1729074;81;21186;-62
2022/08/29 10:10:21;;;;;;;10.03;5.50;;;;;;;24.73;67.16;97976.95;1734851;81;21221;-61
2022/08/29 10:13:08;;;;;;;8.03;6.03;;;;;;;24.88;67.08;97975.88;1750300;80;21141;-61
2022/08/29 10:15:46;;;;;;;8.43;5.62;;;;;;;25.00;65.82;97976.33;1717009;80;21243;-62
2022/08/29 10:18:23;;;;;;;10.93;5.17;;;;;;;25.04;66.05;97974.96;1726443;80;21438;-61
2022/08/29 10:21:09;;;;;;;6.87;4.85;;;;;;;25.09;64.91;97981.45;1726484;82;20912;-61
2022/08/29 10:23:53;;;;;;;9.00;4.85;;;;;;;25.10;64.11;97983.03;1734787;80;21086;-62
2022/08/29 10:26:40;;;;;;;7.20;5.05;;;;;;;25.10;64.11;97983.03;1767809;80;21011;-60
2022/08/29 10:29:15;;;;;;;9.00;4.72;;;;;;;25.37;64.28;97982.91;1736384;80;22235;-63
2022/08/29 10:31:51;;;;;;;6.50;4.87;;;;;;;25.52;61.58;97987.31;1718102;81;20994;-59
2022/08/29 10:34:47;;;;;;;7.35;4.55;;;;;;;25.47;61.49;97982.20;1699145;81;21030;-62
2022/08/29 10:37:45;;;;;;;5.37;4.65;;;;;;;25.45;62.45;97983.17;1736678;81;21121;-60
2022/08/29 10:40:25;;;;;;;5.20;4.70;;;;;;;25.59;62.82;97983.21;1723005;80;20947;-61
2022/08/29 10:43:03;;;;;;;6.40;4.80;;;;;;;25.81;61.94;97984.80;1742072;81;21125;-62
2022/08/29 10:45:48;;;;;;;7.60;4.80;;;;;;;25.92;60.85;97963.45;1720967;81;21086;-62
2022/08/29 10:48:21;;;;;;;6.50;4.60;;;;;;;26.04;61.00;97975.42;1727083;81;22058;-62
2022/08/29 10:51:22;;;;;;;14.43;5.40;;;;;;;26.18;61.09;97971.33;1742816;81;21010;-61
2022/08/29 10:53:54;;;;;;;7.35;4.70;;;;;;;26.36;60.04;97979.74;1708443;82;20997;-63
2022/08/29 10:56:29;;;;;;;4.85;4.05;;;;;;;26.46;59.82;97980.33;1710546;81;21202;-61
2022/08/29 10:59:23;;;;;;;5.45;4.30;;;;;;;26.51;58.22;97981.89;1753511;80;21631;-60
2022/08/29 11:02:10;;;;;;;9.43;5.30;;;;;;;26.48;58.03;97980.71;1707894;82;21066;-61
2022/08/29 11:04:42;;;;;;;6.37;4.80;;;;;;;26.43;58.46;97985.23;1726399;80;21125;-60
2022/08/29 11:07:27;;;;;;;7.03;4.70;;;;;;;26.27;58.57;97984.06;1723915;80;20994;-61
2022/08/29 11:09:58;;;;;;;5.78;4.72;;;;;;;26.08;59.46;97988.55;1736462;80;21191;-61
2022/08/29 11:13:02;;;;;;;7.22;4.67;;;;;;;26.02;60.49;97990.13;1736048;80;21074;-61
2022/08/29 11:15:48;;;;;;;9.15;4.97;;;;;;;26.10;60.27;97994.42;1739141;81;21084;-60
2022/08/29 11:18:47;;;;;;;7.75;5.05;;;;;;;26.10;60.31;97991.13;1728525;81;21594;-60
2022/08/29 11:21:30;;;;;;;7.25;4.22;;;;;;;26.02;58.91;97990.13;1719969;80;21714;-60
2022/08/29 11:24:02;;;;;;;9.28;4.50;;;;;;;25.81;60.14;97998.52;1699638;82;22004;-60
2022/08/29 11:26:49;;;;;;;9.35;4.97;;;;;;;25.81;60.14;97998.52;1726987;80;21098;-60
2022/08/29 11:29:58;;;;;;;9.35;4.70;;;;;;;25.92;60.11;98004.61;1739210;80;21055;-59
2022/08/29 11:32:57;;;;;;;5.03;4.60;;;;;;;26.06;58.48;97999.92;1721253;80;21070;-60
2022/08/29 11:35:57;;;;;;;6.67;4.70;;;;;;;26.12;58.63;97990.75;1750172;80;21203;-60
2022/08/29 11:39:04;;;;;;;6.12;4.40;;;;;;;26.38;58.59;97984.83;1731571;80;21839;-59
2022/08/29 11:41:36;;;;;;;6.55;5.08;;;;;;;26.66;57.03;97987.56;1733263;80;21113;-61
2022/08/29 11:44:34;;;;;;;8.93;5.20;;;;;;;26.96;55.89;97993.39;1720461;82;20939;-61
2022/08/29 11:47:08;;;;;;;6.55;4.97;;;;;;;26.93;55.67;97990.64;1710780;81;21435;-61
2022/08/29 11:49:39;;;;;;;4.97;4.58;;;;;;;26.50;56.42;97994.04;1707312;80;21244;-61
2022/08/29 11:52:23;;;;;;;6.55;5.20;;;;;;;26.16;57.67;97982.71;1718096;81;21134;-60
2022/08/29 11:55:13;;;;;;;5.55;5.00;;;;;;;25.98;58.23;97986.60;1722978;80;21016;-59
2022/08/29 11:57:52;;;;;;;7.58;5.53;;;;;;;25.81;59.18;97994.40;1676464;82;21442;-59
2022/08/29 12:00:32;;;;;;;7.78;6.20;;;;;;;25.81;59.72;97988.91;1664214;83;21028;-59